KDAG/DAG METAR and TAF weather

Enter ICAO airport designator
Station Type Date Time Source
KDAG METAR 2019/02/23 16:50 UTC NOAA

KDAG 231650Z AUTO 26008KT 10SM CLR 04/M04 A3031 RMK AO2 SLP265 T00441039


Station Type Date Time Source
KDAG Decoded METAR 2019/02/23 16:50 UTC NOAA

BARSTOW-DAGGETT AIRPORT, CA, United States (KDAG) 34-51N 116-47W 587M
Feb 23, 2019 - 11:50 AM EST / 2019.02.23 1650 UTC
Wind: from the W (260 degrees) at 9 MPH (8 KT):0
Visibility: 10 mile(s):0
Sky conditions: clear
Temperature: 39.9 F (4.4 C)
Dew Point: 25.0 F (-3.9 C)
Relative Humidity: 54%
Pressure (altimeter): 30.31 in. Hg (1026 hPa)
ob: KDAG 231650Z AUTO 26008KT 10SM CLR 04/M04 A3031 RMK AO2 SLP265 T00441039
cycle: 17

Station Type Date Time Source
KDAG TAF 2019/02/23 12:39 UTC NOAA

TAF KDAG 231136Z 2312/2412 25008KT P6SM SKC
FM231800 04005KT P6SM FEW250
FM240400 13005KT P6SM BKN250


Example: see airport list